RJTH(METAR)
08/04 17:00
RJTH 040800Z 01004KT 9999 FEW025 28/24 Q1016 RMK A3000=
戻る
トップページへ戻る
IMOC Co,.Ltd.